sensor_id;sensor_type;location;lat;lon;timestamp;temperature;humidity
49224;DHT22;35050;51.316;5.994;2022-12-26T00:01:33;11.40;99.90
49224;DHT22;35050;51.316;5.994;2022-12-26T00:03:59;11.40;99.90
49224;DHT22;35050;51.316;5.994;2022-12-26T00:06:26;11.40;99.90
49224;DHT22;35050;51.316;5.994;2022-12-26T00:08:53;11.40;99.90
49224;DHT22;35050;51.316;5.994;2022-12-26T00:11:21;11.50;99.90
49224;DHT22;35050;51.316;5.994;2022-12-26T00:13:47;11.40;99.90
49224;DHT22;35050;51.316;5.994;2022-12-26T00:16:18;11.40;99.90
49224;DHT22;35050;51.316;5.994;2022-12-26T00:18:45;11.30;99.90
49224;DHT22;35050;51.316;5.994;2022-12-26T00:21:13;11.30;99.90
49224;DHT22;35050;51.316;5.994;2022-12-26T00:23:39;11.40;99.90
49224;DHT22;35050;51.316;5.994;2022-12-26T00:26:08;11.40;99.90
49224;DHT22;35050;51.316;5.994;2022-12-26T00:28:35;11.40;99.90
49224;DHT22;35050;51.316;5.994;2022-12-26T00:31:06;11.40;99.90
49224;DHT22;35050;51.316;5.994;2022-12-26T00:33:36;11.40;99.90
49224;DHT22;35050;51.316;5.994;2022-12-26T00:36:11;11.40;99.90
49224;DHT22;35050;51.316;5.994;2022-12-26T00:38:41;11.40;99.90
49224;DHT22;35050;51.316;5.994;2022-12-26T00:41:08;11.40;99.90
49224;DHT22;35050;51.316;5.994;2022-12-26T00:43:34;11.40;99.90
49224;DHT22;35050;51.316;5.994;2022-12-26T00:46:00;11.30;99.90
49224;DHT22;35050;51.316;5.994;2022-12-26T00:48:26;11.30;99.90
49224;DHT22;35050;51.316;5.994;2022-12-26T00:50:52;11.20;99.90
49224;DHT22;35050;51.316;5.994;2022-12-26T00:53:18;11.20;99.90
49224;DHT22;35050;51.316;5.994;2022-12-26T00:55:44;11.20;99.90
49224;DHT22;35050;51.316;5.994;2022-12-26T00:58:10;11.20;99.90
49224;DHT22;35050;51.316;5.994;2022-12-26T01:00:36;11.30;99.90
49224;DHT22;35050;51.316;5.994;2022-12-26T01:03:02;11.20;99.90
49224;DHT22;35050;51.316;5.994;2022-12-26T01:05:28;11.20;99.90
49224;DHT22;35050;51.316;5.994;2022-12-26T01:07:54;11.20;99.90
49224;DHT22;35050;51.316;5.994;2022-12-26T01:10:20;11.20;99.90
49224;DHT22;35050;51.316;5.994;2022-12-26T01:12:45;11.10;99.90
49224;DHT22;35050;51.316;5.994;2022-12-26T01:15:11;11.10;99.90
49224;DHT22;35050;51.316;5.994;2022-12-26T01:17:37;11.10;99.90
49224;DHT22;35050;51.316;5.994;2022-12-26T01:20:02;11.10;99.90
49224;DHT22;35050;51.316;5.994;2022-12-26T01:22:28;11.10;99.90
49224;DHT22;35050;51.316;5.994;2022-12-26T01:24:55;11.20;99.90
49224;DHT22;35050;51.316;5.994;2022-12-26T01:27:22;11.10;99.90
49224;DHT22;35050;51.316;5.994;2022-12-26T01:29:49;11.00;99.90
49224;DHT22;35050;51.316;5.994;2022-12-26T01:32:14;11.00;99.90
49224;DHT22;35050;51.316;5.994;2022-12-26T01:34:40;11.00;99.90
49224;DHT22;35050;51.316;5.994;2022-12-26T01:37:06;11.10;99.90
49224;DHT22;35050;51.316;5.994;2022-12-26T01:39:32;11.00;99.90
49224;DHT22;35050;51.316;5.994;2022-12-26T01:41:57;11.10;99.90
49224;DHT22;35050;51.316;5.994;2022-12-26T01:47:56;11.00;99.90
49224;DHT22;35050;51.316;5.994;2022-12-26T01:53:04;10.90;99.90
49224;DHT22;35050;51.316;5.994;2022-12-26T01:55:32;10.90;99.90
49224;DHT22;35050;51.316;5.994;2022-12-26T01:58:04;10.90;99.90
49224;DHT22;35050;51.316;5.994;2022-12-26T02:00:32;10.90;99.90
49224;DHT22;35050;51.316;5.994;2022-12-26T02:03:00;10.90;99.90
49224;DHT22;35050;51.316;5.994;2022-12-26T02:05:45;10.90;99.90
49224;DHT22;35050;51.316;5.994;2022-12-26T02:08:13;10.90;99.90
49224;DHT22;35050;51.316;5.994;2022-12-26T02:10:49;10.90;99.90
49224;DHT22;35050;51.316;5.994;2022-12-26T02:13:17;10.90;99.90
49224;DHT22;35050;51.316;5.994;2022-12-26T02:15:43;10.80;99.90
49224;DHT22;35050;51.316;5.994;2022-12-26T02:18:09;10.80;99.90
49224;DHT22;35050;51.316;5.994;2022-12-26T02:37:21;10.80;99.90
49224;DHT22;35050;51.316;5.994;2022-12-26T02:51:23;10.70;99.90
49224;DHT22;35050;51.316;5.994;2022-12-26T02:54:22;10.70;99.90
49224;DHT22;35050;51.316;5.994;2022-12-26T02:57:15;10.70;99.90
49224;DHT22;35050;51.316;5.994;2022-12-26T03:06:13;10.70;99.90
49224;DHT22;35050;51.316;5.994;2022-12-26T03:09:07;10.60;99.90
49224;DHT22;35050;51.316;5.994;2022-12-26T03:12:00;10.60;99.90
49224;DHT22;35050;51.316;5.994;2022-12-26T03:15:10;10.70;99.90
49224;DHT22;35050;51.316;5.994;2022-12-26T03:17:49;10.70;99.90
49224;DHT22;35050;51.316;5.994;2022-12-26T03:20:27;10.60;99.90
49224;DHT22;35050;51.316;5.994;2022-12-26T03:22:56;10.60;99.90
49224;DHT22;35050;51.316;5.994;2022-12-26T03:28:21;10.60;99.90
49224;DHT22;35050;51.316;5.994;2022-12-26T03:30:47;10.60;99.90
49224;DHT22;35050;51.316;5.994;2022-12-26T03:33:17;10.60;99.90
49224;DHT22;35050;51.316;5.994;2022-12-26T03:36:02;10.50;99.90
49224;DHT22;35050;51.316;5.994;2022-12-26T03:39:06;10.50;99.90
49224;DHT22;35050;51.316;5.994;2022-12-26T03:41:54;10.50;99.90
49224;DHT22;35050;51.316;5.994;2022-12-26T03:45:02;10.60;99.90
49224;DHT22;35050;51.316;5.994;2022-12-26T03:48:06;10.50;99.90
49224;DHT22;35050;51.316;5.994;2022-12-26T03:51:01;10.50;99.90
49224;DHT22;35050;51.316;5.994;2022-12-26T03:54:01;10.50;99.90
49224;DHT22;35050;51.316;5.994;2022-12-26T03:56:57;10.40;99.90
49224;DHT22;35050;51.316;5.994;2022-12-26T03:59:45;10.50;99.90
49224;DHT22;35050;51.316;5.994;2022-12-26T04:02:32;10.50;99.90
49224;DHT22;35050;51.316;5.994;2022-12-26T04:05:19;10.40;99.90
49224;DHT22;35050;51.316;5.994;2022-12-26T04:08:12;10.40;99.90
49224;DHT22;35050;51.316;5.994;2022-12-26T04:10:58;10.40;99.90
49224;DHT22;35050;51.316;5.994;2022-12-26T04:14:04;10.40;99.90
49224;DHT22;35050;51.316;5.994;2022-12-26T04:20:09;10.40;99.90
49224;DHT22;35050;51.316;5.994;2022-12-26T04:25:48;10.30;99.90
49224;DHT22;35050;51.316;5.994;2022-12-26T04:28:34;10.30;99.90
49224;DHT22;35050;51.316;5.994;2022-12-26T04:31:35;10.30;99.90
49224;DHT22;35050;51.316;5.994;2022-12-26T04:34:31;10.30;99.90
49224;DHT22;35050;51.316;5.994;2022-12-26T04:37:25;10.20;99.90
49224;DHT22;35050;51.316;5.994;2022-12-26T04:40:14;10.20;99.90
49224;DHT22;35050;51.316;5.994;2022-12-26T04:43:01;10.20;99.90
49224;DHT22;35050;51.316;5.994;2022-12-26T04:45:45;10.20;99.90
49224;DHT22;35050;51.316;5.994;2022-12-26T04:48:11;10.20;99.90
49224;DHT22;35050;51.316;5.994;2022-12-26T04:50:55;10.20;99.90
49224;DHT22;35050;51.316;5.994;2022-12-26T04:53:21;10.30;99.90
49224;DHT22;35050;51.316;5.994;2022-12-26T04:55:47;10.20;99.90
49224;DHT22;35050;51.316;5.994;2022-12-26T04:58:12;10.30;99.90
49224;DHT22;35050;51.316;5.994;2022-12-26T05:00:38;10.20;99.90
49224;DHT22;35050;51.316;5.994;2022-12-26T05:03:04;10.20;99.90
49224;DHT22;35050;51.316;5.994;2022-12-26T05:05:49;10.30;99.90
49224;DHT22;35050;51.316;5.994;2022-12-26T05:08:37;10.30;99.90
49224;DHT22;35050;51.316;5.994;2022-12-26T05:11:23;10.30;99.90
49224;DHT22;35050;51.316;5.994;2022-12-26T05:13:53;10.20;99.90
49224;DHT22;35050;51.316;5.994;2022-12-26T05:16:20;10.30;99.90
49224;DHT22;35050;51.316;5.994;2022-12-26T05:19:05;10.20;99.90
49224;DHT22;35050;51.316;5.994;2022-12-26T05:21:49;10.20;99.90
49224;DHT22;35050;51.316;5.994;2022-12-26T05:24:37;10.20;99.90
49224;DHT22;35050;51.316;5.994;2022-12-26T05:27:22;10.20;99.90
49224;DHT22;35050;51.316;5.994;2022-12-26T05:30:07;10.20;99.90
49224;DHT22;35050;51.316;5.994;2022-12-26T05:32:33;10.20;99.90
49224;DHT22;35050;51.316;5.994;2022-12-26T05:35:17;10.20;99.90
49224;DHT22;35050;51.316;5.994;2022-12-26T05:37:43;10.20;99.90
49224;DHT22;35050;51.316;5.994;2022-12-26T05:40:10;10.20;99.90
49224;DHT22;35050;51.316;5.994;2022-12-26T05:42:36;10.20;99.90
49224;DHT22;35050;51.316;5.994;2022-12-26T05:45:02;10.10;99.90
49224;DHT22;35050;51.316;5.994;2022-12-26T05:47:28;10.20;99.90
49224;DHT22;35050;51.316;5.994;2022-12-26T05:49:54;10.20;99.90
49224;DHT22;35050;51.316;5.994;2022-12-26T05:52:19;10.20;99.90
49224;DHT22;35050;51.316;5.994;2022-12-26T05:54:45;10.20;99.90
49224;DHT22;35050;51.316;5.994;2022-12-26T05:57:10;10.30;99.90
49224;DHT22;35050;51.316;5.994;2022-12-26T05:59:36;10.30;99.90
49224;DHT22;35050;51.316;5.994;2022-12-26T06:02:02;10.20;99.90
49224;DHT22;35050;51.316;5.994;2022-12-26T06:04:27;10.30;99.90
49224;DHT22;35050;51.316;5.994;2022-12-26T06:06:54;10.20;99.90
49224;DHT22;35050;51.316;5.994;2022-12-26T06:09:22;10.10;99.90
49224;DHT22;35050;51.316;5.994;2022-12-26T06:11:48;10.10;99.90
49224;DHT22;35050;51.316;5.994;2022-12-26T06:14:14;10.10;99.90
49224;DHT22;35050;51.316;5.994;2022-12-26T06:16:39;10.10;99.90
49224;DHT22;35050;51.316;5.994;2022-12-26T06:19:05;10.00;99.90
49224;DHT22;35050;51.316;5.994;2022-12-26T06:21:31;10.00;99.90
49224;DHT22;35050;51.316;5.994;2022-12-26T06:23:56;10.10;99.90
49224;DHT22;35050;51.316;5.994;2022-12-26T06:26:22;10.10;99.90
49224;DHT22;35050;51.316;5.994;2022-12-26T06:28:47;10.10;99.90
49224;DHT22;35050;51.316;5.994;2022-12-26T06:31:16;10.10;99.90
49224;DHT22;35050;51.316;5.994;2022-12-26T06:33:44;10.10;99.90
49224;DHT22;35050;51.316;5.994;2022-12-26T06:36:16;10.10;99.90
49224;DHT22;35050;51.316;5.994;2022-12-26T06:38:42;10.10;99.90
49224;DHT22;35050;51.316;5.994;2022-12-26T06:41:11;10.10;99.90
49224;DHT22;35050;51.316;5.994;2022-12-26T06:43:37;10.10;99.90
49224;DHT22;35050;51.316;5.994;2022-12-26T06:46:04;10.10;99.90
49224;DHT22;35050;51.316;5.994;2022-12-26T06:48:31;10.10;99.90
49224;DHT22;35050;51.316;5.994;2022-12-26T06:50:57;10.00;99.90
49224;DHT22;35050;51.316;5.994;2022-12-26T06:53:26;10.00;99.90
49224;DHT22;35050;51.316;5.994;2022-12-26T06:55:52;10.00;99.90
49224;DHT22;35050;51.316;5.994;2022-12-26T06:58:18;10.10;99.90
49224;DHT22;35050;51.316;5.994;2022-12-26T07:00:43;10.10;99.90
49224;DHT22;35050;51.316;5.994;2022-12-26T07:03:10;10.10;99.90
49224;DHT22;35050;51.316;5.994;2022-12-26T07:05:36;10.20;99.90
49224;DHT22;35050;51.316;5.994;2022-12-26T07:08:02;10.20;99.90
49224;DHT22;35050;51.316;5.994;2022-12-26T07:10:29;10.20;99.90
49224;DHT22;35050;51.316;5.994;2022-12-26T07:12:58;10.20;99.90
49224;DHT22;35050;51.316;5.994;2022-12-26T07:15:24;10.30;99.90
49224;DHT22;35050;51.316;5.994;2022-12-26T07:17:51;10.30;99.90
49224;DHT22;35050;51.316;5.994;2022-12-26T07:20:16;10.30;99.90
49224;DHT22;35050;51.316;5.994;2022-12-26T07:22:42;10.40;99.90
49224;DHT22;35050;51.316;5.994;2022-12-26T07:25:08;10.40;99.90
49224;DHT22;35050;51.316;5.994;2022-12-26T07:27:33;10.40;99.90
49224;DHT22;35050;51.316;5.994;2022-12-26T07:29:59;10.40;99.90
49224;DHT22;35050;51.316;5.994;2022-12-26T07:32:26;10.40;99.90
49224;DHT22;35050;51.316;5.994;2022-12-26T07:34:52;10.40;99.90
49224;DHT22;35050;51.316;5.994;2022-12-26T07:37:17;10.50;99.90
49224;DHT22;35050;51.316;5.994;2022-12-26T07:39:43;10.40;99.90
49224;DHT22;35050;51.316;5.994;2022-12-26T07:42:08;10.50;99.90
49224;DHT22;35050;51.316;5.994;2022-12-26T07:44:34;10.50;99.90
49224;DHT22;35050;51.316;5.994;2022-12-26T07:47:00;10.40;99.90
49224;DHT22;35050;51.316;5.994;2022-12-26T07:49:26;10.40;99.90
49224;DHT22;35050;51.316;5.994;2022-12-26T07:51:52;10.40;99.90
49224;DHT22;35050;51.316;5.994;2022-12-26T07:54:18;10.40;99.90
49224;DHT22;35050;51.316;5.994;2022-12-26T07:56:44;10.40;99.90
49224;DHT22;35050;51.316;5.994;2022-12-26T07:59:13;10.40;99.90
49224;DHT22;35050;51.316;5.994;2022-12-26T08:01:40;10.40;99.90
49224;DHT22;35050;51.316;5.994;2022-12-26T08:04:05;10.50;99.90
49224;DHT22;35050;51.316;5.994;2022-12-26T08:06:31;10.50;99.90
49224;DHT22;35050;51.316;5.994;2022-12-26T08:08:57;10.50;99.90
49224;DHT22;35050;51.316;5.994;2022-12-26T08:11:23;10.50;99.90
49224;DHT22;35050;51.316;5.994;2022-12-26T08:13:50;10.40;99.90
49224;DHT22;35050;51.316;5.994;2022-12-26T08:16:16;10.40;99.90
49224;DHT22;35050;51.316;5.994;2022-12-26T08:18:41;10.40;99.90
49224;DHT22;35050;51.316;5.994;2022-12-26T08:21:08;10.40;99.90
49224;DHT22;35050;51.316;5.994;2022-12-26T08:23:34;10.40;99.90
49224;DHT22;35050;51.316;5.994;2022-12-26T08:26:08;10.40;99.90
49224;DHT22;35050;51.316;5.994;2022-12-26T08:28:35;10.30;99.90
49224;DHT22;35050;51.316;5.994;2022-12-26T08:31:08;10.30;99.90
49224;DHT22;35050;51.316;5.994;2022-12-26T08:33:34;10.30;99.90
49224;DHT22;35050;51.316;5.994;2022-12-26T08:36:04;10.40;99.90
49224;DHT22;35050;51.316;5.994;2022-12-26T08:38:30;10.50;99.90
49224;DHT22;35050;51.316;5.994;2022-12-26T08:40:56;10.40;99.90
49224;DHT22;35050;51.316;5.994;2022-12-26T08:43:23;10.30;99.90
49224;DHT22;35050;51.316;5.994;2022-12-26T08:46:02;10.40;99.90
49224;DHT22;35050;51.316;5.994;2022-12-26T08:48:28;10.40;99.90
49224;DHT22;35050;51.316;5.994;2022-12-26T08:50:59;10.30;99.90
49224;DHT22;35050;51.316;5.994;2022-12-26T08:53:26;10.20;99.90
49224;DHT22;35050;51.316;5.994;2022-12-26T08:55:53;10.20;99.90
49224;DHT22;35050;51.316;5.994;2022-12-26T08:58:19;10.30;99.90
49224;DHT22;35050;51.316;5.994;2022-12-26T09:00:45;10.30;99.90
49224;DHT22;35050;51.316;5.994;2022-12-26T09:03:11;10.30;99.90
49224;DHT22;35050;51.316;5.994;2022-12-26T09:05:36;10.40;99.90
49224;DHT22;35050;51.316;5.994;2022-12-26T09:08:02;10.40;99.90
49224;DHT22;35050;51.316;5.994;2022-12-26T09:10:28;10.40;99.90
49224;DHT22;35050;51.316;5.994;2022-12-26T09:12:53;10.40;99.90
49224;DHT22;35050;51.316;5.994;2022-12-26T09:15:19;10.30;99.90
49224;DHT22;35050;51.316;5.994;2022-12-26T09:17:45;10.30;99.90
49224;DHT22;35050;51.316;5.994;2022-12-26T09:20:10;10.30;99.90
49224;DHT22;35050;51.316;5.994;2022-12-26T09:22:36;10.30;99.90
49224;DHT22;35050;51.316;5.994;2022-12-26T09:25:18;10.40;99.90
49224;DHT22;35050;51.316;5.994;2022-12-26T09:27:44;10.50;99.90
49224;DHT22;35050;51.316;5.994;2022-12-26T09:30:10;10.60;99.90
49224;DHT22;35050;51.316;5.994;2022-12-26T09:32:36;10.80;99.90
49224;DHT22;35050;51.316;5.994;2022-12-26T09:35:03;10.80;99.90
49224;DHT22;35050;51.316;5.994;2022-12-26T09:37:29;10.70;99.90
49224;DHT22;35050;51.316;5.994;2022-12-26T09:39:54;10.90;99.90
49224;DHT22;35050;51.316;5.994;2022-12-26T09:45:05;11.10;99.90
49224;DHT22;35050;51.316;5.994;2022-12-26T09:47:33;11.40;99.90
49224;DHT22;35050;51.316;5.994;2022-12-26T09:50:12;11.30;99.90
49224;DHT22;35050;51.316;5.994;2022-12-26T09:52:50;11.30;99.90
49224;DHT22;35050;51.316;5.994;2022-12-26T09:55:43;11.20;99.90
49224;DHT22;35050;51.316;5.994;2022-12-26T09:58:16;11.10;99.90
49224;DHT22;35050;51.316;5.994;2022-12-26T10:00:52;11.10;99.90
49224;DHT22;35050;51.316;5.994;2022-12-26T10:03:21;11.50;99.90
49224;DHT22;35050;51.316;5.994;2022-12-26T10:14:58;11.40;99.90
49224;DHT22;35050;51.316;5.994;2022-12-26T10:17:48;11.50;99.90
49224;DHT22;35050;51.316;5.994;2022-12-26T10:20:31;11.60;99.90
49224;DHT22;35050;51.316;5.994;2022-12-26T10:25:48;11.80;99.90
49224;DHT22;35050;51.316;5.994;2022-12-26T10:31:18;11.60;99.90
49224;DHT22;35050;51.316;5.994;2022-12-26T10:33:51;11.60;99.90
49224;DHT22;35050;51.316;5.994;2022-12-26T10:36:51;11.50;99.90
49224;DHT22;35050;51.316;5.994;2022-12-26T10:39:28;11.50;99.90
49224;DHT22;35050;51.316;5.994;2022-12-26T10:41:58;11.50;99.90
49224;DHT22;35050;51.316;5.994;2022-12-26T10:44:25;11.60;99.90
49224;DHT22;35050;51.316;5.994;2022-12-26T10:47:14;11.60;99.90
49224;DHT22;35050;51.316;5.994;2022-12-26T10:49:46;11.50;99.90
49224;DHT22;35050;51.316;5.994;2022-12-26T10:52:13;11.50;99.90
49224;DHT22;35050;51.316;5.994;2022-12-26T10:54:40;11.50;99.90
49224;DHT22;35050;51.316;5.994;2022-12-26T10:57:06;11.40;99.90
49224;DHT22;35050;51.316;5.994;2022-12-26T10:59:45;11.40;99.90
49224;DHT22;35050;51.316;5.994;2022-12-26T11:02:27;11.40;99.90
49224;DHT22;35050;51.316;5.994;2022-12-26T11:05:00;11.30;99.90
49224;DHT22;35050;51.316;5.994;2022-12-26T11:07:30;11.30;99.90
49224;DHT22;35050;51.316;5.994;2022-12-26T11:09:57;11.30;99.90
49224;DHT22;35050;51.316;5.994;2022-12-26T11:14:49;11.20;99.90
49224;DHT22;35050;51.316;5.994;2022-12-26T11:17:30;11.20;99.90
49224;DHT22;35050;51.316;5.994;2022-12-26T11:20:20;11.30;99.90
49224;DHT22;35050;51.316;5.994;2022-12-26T11:22:48;11.40;99.90
49224;DHT22;35050;51.316;5.994;2022-12-26T11:25:24;11.40;99.90
49224;DHT22;35050;51.316;5.994;2022-12-26T11:27:58;11.40;99.90
49224;DHT22;35050;51.316;5.994;2022-12-26T11:30:36;11.40;99.90
49224;DHT22;35050;51.316;5.994;2022-12-26T11:35:31;11.30;99.90
49224;DHT22;35050;51.316;5.994;2022-12-26T11:38:03;11.40;99.90
49224;DHT22;35050;51.316;5.994;2022-12-26T11:40:37;11.40;99.90
49224;DHT22;35050;51.316;5.994;2022-12-26T11:43:14;11.60;99.90
49224;DHT22;35050;51.316;5.994;2022-12-26T11:45:42;11.60;99.90
49224;DHT22;35050;51.316;5.994;2022-12-26T11:48:23;11.50;99.90
49224;DHT22;35050;51.316;5.994;2022-12-26T11:50:50;11.40;99.90
49224;DHT22;35050;51.316;5.994;2022-12-26T11:53:19;11.40;99.90
49224;DHT22;35050;51.316;5.994;2022-12-26T11:56:05;11.00;99.90
49224;DHT22;35050;51.316;5.994;2022-12-26T11:58:32;10.70;99.90
49224;DHT22;35050;51.316;5.994;2022-12-26T12:03:32;10.60;99.90
49224;DHT22;35050;51.316;5.994;2022-12-26T12:06:16;10.50;99.90
49224;DHT22;35050;51.316;5.994;2022-12-26T12:21:51;10.50;99.90
49224;DHT22;35050;51.316;5.994;2022-12-26T12:27:10;10.30;99.90
49224;DHT22;35050;51.316;5.994;2022-12-26T12:32:27;10.40;99.90
49224;DHT22;35050;51.316;5.994;2022-12-26T12:46:29;10.10;99.90
49224;DHT22;35050;51.316;5.994;2022-12-26T12:49:16;10.10;99.90
49224;DHT22;35050;51.316;5.994;2022-12-26T13:00:09;10.10;99.90
49224;DHT22;35050;51.316;5.994;2022-12-26T13:02:46;10.00;99.90
49224;DHT22;35050;51.316;5.994;2022-12-26T13:08:28;9.90;99.90
49224;DHT22;35050;51.316;5.994;2022-12-26T13:10:58;10.00;99.90
49224;DHT22;35050;51.316;5.994;2022-12-26T13:13:55;9.70;99.90
49224;DHT22;35050;51.316;5.994;2022-12-26T13:16:27;9.60;99.90
49224;DHT22;35050;51.316;5.994;2022-12-26T13:18:59;9.60;99.90
49224;DHT22;35050;51.316;5.994;2022-12-26T13:21:28;9.60;99.90
49224;DHT22;35050;51.316;5.994;2022-12-26T13:24:08;9.50;99.90
49224;DHT22;35050;51.316;5.994;2022-12-26T13:29:42;9.60;99.90
49224;DHT22;35050;51.316;5.994;2022-12-26T13:32:27;9.70;99.90
49224;DHT22;35050;51.316;5.994;2022-12-26T13:34:57;9.70;99.90
49224;DHT22;35050;51.316;5.994;2022-12-26T13:42:45;9.50;99.90
49224;DHT22;35050;51.316;5.994;2022-12-26T13:55:59;9.40;99.90
49224;DHT22;35050;51.316;5.994;2022-12-26T13:58:47;9.50;99.90
49224;DHT22;35050;51.316;5.994;2022-12-26T14:01:26;9.50;99.90
49224;DHT22;35050;51.316;5.994;2022-12-26T14:06:40;9.50;99.90
49224;DHT22;35050;51.316;5.994;2022-12-26T14:15:28;9.20;99.90
49224;DHT22;35050;51.316;5.994;2022-12-26T14:26:25;9.10;99.90
49224;DHT22;35050;51.316;5.994;2022-12-26T14:32:09;9.00;99.90
49224;DHT22;35050;51.316;5.994;2022-12-26T14:37:54;9.00;99.90
49224;DHT22;35050;51.316;5.994;2022-12-26T14:40:31;9.10;99.90
49224;DHT22;35050;51.316;5.994;2022-12-26T14:53:33;8.90;99.90
49224;DHT22;35050;51.316;5.994;2022-12-26T15:04:28;8.90;99.90
49224;DHT22;35050;51.316;5.994;2022-12-26T15:13:12;8.70;99.90
49224;DHT22;35050;51.316;5.994;2022-12-26T15:21:21;8.40;99.90
49224;DHT22;35050;51.316;5.994;2022-12-26T15:29:24;8.30;99.90
49224;DHT22;35050;51.316;5.994;2022-12-26T15:32:18;8.00;99.90
49224;DHT22;35050;51.316;5.994;2022-12-26T15:35:03;8.00;99.90
49224;DHT22;35050;51.316;5.994;2022-12-26T15:40:32;7.70;99.90
49224;DHT22;35050;51.316;5.994;2022-12-26T15:51:42;7.50;99.90
49224;DHT22;35050;51.316;5.994;2022-12-26T16:10:31;7.40;99.90
49224;DHT22;35050;51.316;5.994;2022-12-26T16:15:45;7.40;99.90
49224;DHT22;35050;51.316;5.994;2022-12-26T16:18:25;7.40;99.90
49224;DHT22;35050;51.316;5.994;2022-12-26T16:20:53;7.30;99.90
49224;DHT22;35050;51.316;5.994;2022-12-26T16:23:41;7.30;99.90
49224;DHT22;35050;51.316;5.994;2022-12-26T16:26:21;7.40;99.90
49224;DHT22;35050;51.316;5.994;2022-12-26T16:28:48;7.30;99.90
49224;DHT22;35050;51.316;5.994;2022-12-26T16:31:24;7.20;99.90
49224;DHT22;35050;51.316;5.994;2022-12-26T16:33:52;7.10;99.90
49224;DHT22;35050;51.316;5.994;2022-12-26T16:36:24;7.20;99.90
49224;DHT22;35050;51.316;5.994;2022-12-26T16:38:51;7.10;99.90
49224;DHT22;35050;51.316;5.994;2022-12-26T16:41:21;7.10;99.90
49224;DHT22;35050;51.316;5.994;2022-12-26T16:43:47;6.90;99.90
49224;DHT22;35050;51.316;5.994;2022-12-26T16:46:14;6.90;99.90
49224;DHT22;35050;51.316;5.994;2022-12-26T16:48:44;6.90;99.90
49224;DHT22;35050;51.316;5.994;2022-12-26T16:51:46;7.00;99.90
49224;DHT22;35050;51.316;5.994;2022-12-26T16:54:28;6.60;99.90
49224;DHT22;35050;51.316;5.994;2022-12-26T16:57:17;6.70;99.90
49224;DHT22;35050;51.316;5.994;2022-12-26T16:59:54;6.70;99.90
49224;DHT22;35050;51.316;5.994;2022-12-26T17:02:22;6.70;99.90
49224;DHT22;35050;51.316;5.994;2022-12-26T17:05:07;6.70;99.90
49224;DHT22;35050;51.316;5.994;2022-12-26T17:07:44;6.70;99.90
49224;DHT22;35050;51.316;5.994;2022-12-26T17:10:22;6.50;99.90
49224;DHT22;35050;51.316;5.994;2022-12-26T17:12:49;6.50;99.90
49224;DHT22;35050;51.316;5.994;2022-12-26T17:15:20;6.40;99.90
49224;DHT22;35050;51.316;5.994;2022-12-26T17:17:47;6.40;99.90
49224;DHT22;35050;51.316;5.994;2022-12-26T17:22:49;6.30;99.90
49224;DHT22;35050;51.316;5.994;2022-12-26T17:25:28;6.30;99.90
49224;DHT22;35050;51.316;5.994;2022-12-26T17:33:23;6.10;99.90
49224;DHT22;35050;51.316;5.994;2022-12-26T17:36:11;6.20;99.90
49224;DHT22;35050;51.316;5.994;2022-12-26T17:38:39;6.10;99.90
49224;DHT22;35050;51.316;5.994;2022-12-26T17:41:05;6.10;99.90
49224;DHT22;35050;51.316;5.994;2022-12-26T17:43:33;6.10;99.90
49224;DHT22;35050;51.316;5.994;2022-12-26T17:46:00;6.00;99.90
49224;DHT22;35050;51.316;5.994;2022-12-26T17:48:26;5.90;99.90
49224;DHT22;35050;51.316;5.994;2022-12-26T17:50:57;6.00;99.90
49224;DHT22;35050;51.316;5.994;2022-12-26T17:53:28;6.00;99.90
49224;DHT22;35050;51.316;5.994;2022-12-26T17:55:57;5.90;99.90
49224;DHT22;35050;51.316;5.994;2022-12-26T17:58:23;5.80;99.90
49224;DHT22;35050;51.316;5.994;2022-12-26T18:00:50;5.80;99.90
49224;DHT22;35050;51.316;5.994;2022-12-26T18:03:16;5.90;99.90
49224;DHT22;35050;51.316;5.994;2022-12-26T18:05:42;5.80;99.90
49224;DHT22;35050;51.316;5.994;2022-12-26T18:08:26;5.90;99.90
49224;DHT22;35050;51.316;5.994;2022-12-26T18:10:53;5.70;99.90
49224;DHT22;35050;51.316;5.994;2022-12-26T18:13:19;5.70;99.90
49224;DHT22;35050;51.316;5.994;2022-12-26T18:15:45;5.80;99.90
49224;DHT22;35050;51.316;5.994;2022-12-26T18:18:29;5.70;99.90
49224;DHT22;35050;51.316;5.994;2022-12-26T18:20:56;5.70;99.90
49224;DHT22;35050;51.316;5.994;2022-12-26T18:23:22;5.70;99.90
49224;DHT22;35050;51.316;5.994;2022-12-26T18:25:48;5.70;99.90
49224;DHT22;35050;51.316;5.994;2022-12-26T18:28:15;5.70;99.90
49224;DHT22;35050;51.316;5.994;2022-12-26T18:30:42;5.60;99.90
49224;DHT22;35050;51.316;5.994;2022-12-26T18:33:11;5.50;99.90
49224;DHT22;35050;51.316;5.994;2022-12-26T18:35:39;8.10;99.90
49224;DHT22;35050;51.316;5.994;2022-12-26T18:38:05;8.10;99.90
49224;DHT22;35050;51.316;5.994;2022-12-26T18:40:39;8.20;99.90
49224;DHT22;35050;51.316;5.994;2022-12-26T18:43:06;6.90;99.90
49224;DHT22;35050;51.316;5.994;2022-12-26T18:45:33;6.40;99.90
49224;DHT22;35050;51.316;5.994;2022-12-26T18:48:00;6.20;99.90
49224;DHT22;35050;51.316;5.994;2022-12-26T18:50:27;6.20;99.90
49224;DHT22;35050;51.316;5.994;2022-12-26T18:52:54;6.10;99.90
49224;DHT22;35050;51.316;5.994;2022-12-26T18:55:20;6.00;99.90
49224;DHT22;35050;51.316;5.994;2022-12-26T18:57:46;5.80;99.90
49224;DHT22;35050;51.316;5.994;2022-12-26T19:00:13;5.70;99.90
49224;DHT22;35050;51.316;5.994;2022-12-26T19:02:40;5.60;99.90
49224;DHT22;35050;51.316;5.994;2022-12-26T19:05:08;5.50;99.90
49224;DHT22;35050;51.316;5.994;2022-12-26T19:07:38;5.60;99.90
49224;DHT22;35050;51.316;5.994;2022-12-26T19:10:04;5.50;99.90
49224;DHT22;35050;51.316;5.994;2022-12-26T19:12:30;5.50;99.90
49224;DHT22;35050;51.316;5.994;2022-12-26T19:14:55;5.40;99.90
49224;DHT22;35050;51.316;5.994;2022-12-26T19:17:21;5.60;99.90
49224;DHT22;35050;51.316;5.994;2022-12-26T19:19:47;5.30;99.90
49224;DHT22;35050;51.316;5.994;2022-12-26T19:22:12;5.50;99.90
49224;DHT22;35050;51.316;5.994;2022-12-26T19:24:38;5.40;99.90
49224;DHT22;35050;51.316;5.994;2022-12-26T19:27:04;5.40;99.90
49224;DHT22;35050;51.316;5.994;2022-12-26T19:29:29;5.30;99.90
49224;DHT22;35050;51.316;5.994;2022-12-26T19:31:55;5.30;99.90
49224;DHT22;35050;51.316;5.994;2022-12-26T19:34:22;5.20;99.90
49224;DHT22;35050;51.316;5.994;2022-12-26T19:36:48;5.30;99.90
49224;DHT22;35050;51.316;5.994;2022-12-26T19:39:14;5.30;99.90
49224;DHT22;35050;51.316;5.994;2022-12-26T19:41:40;5.20;99.90
49224;DHT22;35050;51.316;5.994;2022-12-26T19:44:06;5.00;99.90
49224;DHT22;35050;51.316;5.994;2022-12-26T19:46:32;5.20;99.90
49224;DHT22;35050;51.316;5.994;2022-12-26T19:48:58;5.10;99.90
49224;DHT22;35050;51.316;5.994;2022-12-26T19:51:24;5.20;99.90
49224;DHT22;35050;51.316;5.994;2022-12-26T19:53:49;5.10;99.90
49224;DHT22;35050;51.316;5.994;2022-12-26T19:56:18;5.00;99.90
49224;DHT22;35050;51.316;5.994;2022-12-26T19:58:44;4.80;99.90